Briefing drone pour Lusignan

Rechercher une autre localisation

Conditions de vol :


Nous sommes le : Vendredi 22 octobre 2021
Il est 12:52 UTC (14:52 LT)

Lever de soleil : 06:00 UTC (08:00 LT)
Coucher de soleil : 17:27 UTC (19:27 LT)

Météo

L'essentiel des conditions de vol

VIGILANCE MÉTÉO FRANCE - Vienne (86)
Pas de vigilances particulieres
CARTES DES FRONTS
METAR de LFBI
LFBI 221230Z AUTO 03008KT 340V080 CAVOK 14/04 Q1025 NOSIG

Date d'émission: 22/10/2021
Heure d'émission: 12:30 UTC
Vent: 030° (variable du 340° au 080°) pour 8 KT (15 km/h)
Visibilité horizontale: > 10 km
Plafond : Plafond et visibilité OK (CAVOK)
Température: 14 °C
Point de rosée: 4 °C
Humidité: 51%
Pression (QNH): 1025 hPa
Conditions: Pas de changement dans les 2 heures (NOSIG)
TAF de LFBI
LFBI 221100Z 2212/2312 04010KT CAVOK

Conditions prévues :

Heure d'émission : Bulletin éffectué le 22 à 12:00 UTC
Prévision : Valide du 22 a 12:00 UTC au 23 a 12:00 UTC
Vent : 40° pour 10 KT (19 km/h)
Visibilité : > 10 km
WEBCAM POUR LUSIGNAN

Réglementation

Voler en sécurité

CARTES AERONAUTIQUE 1/500.000
CARTES VAC (LFBI)
SUP AIP




Chargement des AIP...
NOTAM (LUSIGNAN + Terrain à proximité / FIR )




Chargement des NOTAMS...
CONTACT PREFECTURE 86


Avertissement : Les données mises à disposition sont indicatives. Oxygène Drone ne pourra être tenu responsable de dégâts causés aux biens et aux personnes.